logo
Search for airport 
image banner adimage banner adimage banner ad
image banner ad

RPMV - Ipil Community Airport

Located in Ipil, Philippines

ICAO - RPMV, IATA - IPE

Data provided by Airmate  

General information

Coordinates: N7°47'36" E122°36'25"
Elevation is 39 feet MSL.
Magnetic variation is -1° East
View others Airports in Zamboanga Sibiguey

Operational data

Special qualification required
Current time UTC:
Current local time:
Weather at : - ( 0 km )
METAR: CYNA 221007Z AUTO 11006KT 6SM -UP BR FEW011 BKN025 00/M00 A2956 RMK SLP013
View NOTAMs / SUP AIP / TFR affecting this airport [VIEW]
Communications frequencies: [VIEW]

Runways:

RWY identifierQFULength (ft)Width (ft)SurfaceLDA (ft)
18180°261898MACADAM2618
36261898MACADAM2618

Airport contact information

Address: Ipil Philippines

Satellite view of RPMV